createdAt,value
2023-05-17T00:00:11.553Z,7.64
2023-05-17T00:00:53.612Z,7.65
2023-05-17T00:01:35.282Z,7.64
2023-05-17T00:02:17.075Z,7.63
2023-05-17T00:02:59.001Z,7.56
2023-05-17T00:03:41.215Z,7.57
2023-05-17T00:04:23.319Z,7.62
2023-05-17T00:05:05.594Z,7.54
2023-05-17T00:05:47.381Z,7.60
2023-05-17T00:06:29.255Z,7.56
2023-05-17T00:07:11.017Z,7.61
2023-05-17T00:07:52.688Z,7.68
2023-05-17T00:08:34.377Z,7.62
2023-05-17T00:09:16.186Z,7.73
2023-05-17T00:09:57.851Z,7.69
2023-05-17T00:10:39.575Z,7.81
2023-05-17T00:11:21.584Z,7.83
2023-05-17T00:12:03.587Z,7.81
2023-05-17T00:12:46.163Z,7.83
2023-05-17T00:13:27.910Z,7.80
2023-05-17T00:14:09.688Z,7.77
2023-05-17T00:14:51.416Z,7.74
2023-05-17T00:15:33.139Z,7.71
2023-05-17T00:16:14.913Z,7.68
2023-05-17T00:16:56.676Z,7.61
2023-05-17T00:17:38.534Z,7.68
2023-05-17T00:18:20.634Z,7.70
2023-05-17T00:19:02.421Z,7.72
2023-05-17T00:19:44.201Z,7.76
2023-05-17T00:20:25.983Z,7.77
2023-05-17T00:21:07.705Z,7.69
2023-05-17T00:21:49.464Z,7.74
2023-05-17T00:22:31.259Z,7.85
2023-05-17T00:23:12.957Z,7.89
2023-05-17T00:23:54.696Z,7.83
2023-05-17T00:24:36.466Z,7.82
2023-05-17T00:25:18.230Z,7.93
2023-05-17T00:26:00.040Z,8.01
2023-05-17T00:26:41.750Z,7.88
2023-05-17T00:27:23.474Z,8.01
2023-05-17T00:28:05.395Z,8.03
2023-05-17T00:28:47.250Z,8.05
2023-05-17T00:29:29.844Z,7.96
2023-05-17T00:30:11.674Z,8.10
2023-05-17T00:30:53.406Z,8.12
2023-05-17T00:31:35.185Z,8.10
2023-05-17T00:32:16.867Z,8.00
2023-05-17T00:32:58.604Z,7.90
2023-05-17T00:33:40.696Z,7.98
2023-05-17T00:34:22.447Z,7.93
2023-05-17T00:35:05.456Z,7.88
2023-05-17T00:35:47.244Z,7.86
2023-05-17T00:36:28.973Z,7.76
2023-05-17T00:37:10.793Z,7.83
2023-05-17T00:37:52.575Z,7.82
2023-05-17T00:38:34.261Z,7.81
2023-05-17T00:39:16.540Z,7.84
2023-05-17T00:39:58.241Z,7.85
2023-05-17T00:40:39.982Z,7.90
2023-05-17T00:41:21.702Z,7.93
2023-05-17T00:42:04.127Z,7.93
2023-05-17T00:42:45.880Z,7.94
2023-05-17T00:43:27.816Z,7.94
2023-05-17T00:44:09.618Z,7.88
2023-05-17T00:44:51.364Z,7.87
2023-05-17T00:45:33.101Z,7.88
2023-05-17T00:46:16.119Z,7.85
2023-05-17T00:46:59.780Z,7.91
2023-05-17T00:47:42.685Z,7.92
2023-05-17T00:48:27.724Z,7.88
2023-05-17T00:49:09.752Z,7.90
2023-05-17T00:49:51.582Z,7.96
2023-05-17T00:50:33.837Z,7.98
2023-05-17T00:51:16.701Z,8.02
2023-05-17T00:51:59.364Z,8.01
2023-05-17T00:52:41.338Z,7.98
2023-05-17T00:53:23.491Z,7.94
2023-05-17T00:54:06.295Z,7.80
2023-05-17T00:54:48.310Z,7.84
2023-05-17T00:55:30.750Z,7.67
2023-05-17T00:56:12.911Z,7.71
2023-05-17T00:56:54.901Z,7.64
2023-05-17T00:57:37.749Z,7.54
2023-05-17T00:58:19.500Z,7.53
2023-05-17T00:59:04.001Z,7.47
2023-05-17T00:59:46.114Z,7.35
2023-05-17T01:00:28.243Z,7.33
2023-05-17T01:01:10.121Z,7.36
2023-05-17T01:01:52.611Z,7.31
2023-05-17T01:02:34.430Z,7.27
2023-05-17T01:03:18.097Z,7.30
2023-05-17T01:04:00.200Z,7.26
2023-05-17T01:04:42.161Z,7.10
2023-05-17T01:05:23.862Z,7.21
2023-05-17T01:06:06.345Z,7.22
2023-05-17T01:06:50.541Z,7.11
2023-05-17T01:07:32.341Z,7.17
2023-05-17T01:08:14.122Z,7.09
2023-05-17T01:08:56.064Z,7.13
2023-05-17T01:09:38.361Z,6.99
2023-05-17T01:10:20.222Z,7.11
2023-05-17T01:11:02.007Z,7.09
2023-05-17T01:12:01.799Z,7.08
2023-05-17T01:12:54.272Z,7.08
2023-05-17T01:14:01.263Z,7.08
2023-05-17T01:15:04.297Z,7.08
2023-05-17T01:15:53.457Z,7.06
2023-05-17T01:16:42.160Z,7.02
2023-05-17T01:17:50.872Z,7.14
2023-05-17T01:18:34.125Z,7.09
2023-05-17T01:19:41.711Z,7.20
2023-05-17T01:20:38.066Z,7.20
2023-05-17T01:21:45.037Z,7.18
2023-05-17T01:22:45.336Z,7.15
2023-05-17T01:23:48.924Z,7.10
2023-05-17T01:24:44.502Z,7.07
2023-05-17T01:25:42.264Z,7.04
2023-05-17T01:26:44.098Z,7.05
2023-05-17T01:27:28.423Z,7.05
2023-05-17T01:28:11.517Z,7.07
2023-05-17T01:28:54.933Z,7.09
2023-05-17T01:29:38.952Z,7.13
2023-05-17T01:30:22.710Z,7.03
2023-05-17T01:31:05.261Z,7.16
2023-05-17T01:31:48.971Z,7.18
2023-05-17T01:32:33.521Z,7.18
2023-05-17T01:33:16.430Z,7.19
2023-05-17T01:33:58.932Z,7.22
2023-05-17T01:34:42.984Z,7.15
2023-05-17T01:35:25.340Z,7.17
2023-05-17T01:36:08.553Z,7.15
2023-05-17T01:36:50.365Z,7.06
2023-05-17T01:37:32.251Z,7.09
2023-05-17T01:38:14.041Z,6.98
2023-05-17T01:38:55.824Z,6.97
2023-05-17T01:39:37.720Z,6.98
2023-05-17T01:40:20.300Z,6.95
2023-05-17T01:41:07.902Z,6.91
2023-05-17T01:42:07.246Z,6.88
2023-05-17T01:42:56.672Z,6.83
2023-05-17T01:43:48.001Z,6.81
2023-05-17T01:44:30.792Z,6.79
2023-05-17T01:45:25.925Z,6.79
2023-05-17T01:46:16.647Z,6.80
2023-05-17T01:47:12.251Z,6.81
2023-05-17T01:48:11.323Z,6.69
2023-05-17T01:49:16.156Z,6.85
2023-05-17T01:50:00.700Z,6.87
2023-05-17T01:50:43.796Z,6.81
2023-05-17T01:51:33.337Z,6.95
2023-05-17T01:52:26.070Z,6.95
2023-05-17T01:53:11.038Z,7.01
2023-05-17T01:54:02.128Z,7.00
2023-05-17T01:55:05.806Z,6.99
2023-05-17T01:55:51.968Z,7.10
2023-05-17T01:56:48.043Z,7.10
2023-05-17T01:57:35.349Z,7.10
2023-05-17T01:58:21.695Z,7.15
2023-05-17T01:59:06.617Z,7.16
2023-05-17T01:59:49.803Z,7.11
2023-05-17T02:00:31.821Z,7.06
2023-05-17T02:01:15.821Z,7.11
2023-05-17T02:02:07.349Z,7.02
2023-05-17T02:02:50.759Z,7.01
2023-05-17T02:03:32.761Z,7.11
2023-05-17T02:04:14.593Z,7.10
2023-05-17T02:04:56.407Z,7.02
2023-05-17T02:05:38.258Z,7.12
2023-05-17T02:06:21.132Z,7.02
2023-05-17T02:07:05.262Z,7.13
2023-05-17T02:07:46.990Z,7.09
2023-05-17T02:08:28.735Z,7.13
2023-05-17T02:09:10.691Z,7.14
2023-05-17T02:09:53.539Z,7.13
2023-05-17T02:10:35.518Z,7.15
2023-05-17T02:11:18.316Z,7.14
2023-05-17T02:11:59.999Z,7.11
2023-05-17T02:12:41.793Z,7.11
2023-05-17T02:13:23.472Z,7.16
2023-05-17T02:14:05.215Z,7.21
2023-05-17T02:14:47.256Z,7.14
2023-05-17T02:15:29.149Z,7.16
2023-05-17T02:16:11.180Z,7.09
2023-05-17T02:16:53.010Z,7.26
2023-05-17T02:17:34.815Z,7.17
2023-05-17T02:18:16.726Z,7.27
2023-05-17T02:18:58.734Z,7.26
2023-05-17T02:19:40.524Z,7.27
2023-05-17T02:20:22.454Z,7.27
2023-05-17T02:21:04.590Z,7.27
2023-05-17T02:21:46.414Z,7.23
2023-05-17T02:22:30.829Z,7.25
2023-05-17T02:23:12.873Z,7.28
2023-05-17T02:23:54.590Z,7.27
2023-05-17T02:24:36.450Z,7.28
2023-05-17T02:25:18.314Z,7.26
2023-05-17T02:26:00.127Z,7.20
2023-05-17T02:26:43.268Z,7.28
2023-05-17T02:27:25.152Z,7.28
2023-05-17T02:28:08.190Z,7.27
2023-05-17T02:28:50.537Z,7.19
2023-05-17T02:29:33.119Z,7.17
2023-05-17T02:30:18.115Z,7.28
2023-05-17T02:31:00.101Z,7.30
2023-05-17T02:31:41.807Z,7.30
2023-05-17T02:32:23.602Z,7.29
2023-05-17T02:33:05.529Z,7.28
2023-05-17T02:33:47.363Z,7.33
2023-05-17T02:34:29.038Z,7.25
2023-05-17T02:35:10.777Z,7.30
2023-05-17T02:35:52.468Z,7.22
2023-05-17T02:36:34.938Z,7.21
2023-05-17T02:37:16.681Z,7.26
2023-05-17T02:37:59.769Z,7.07
2023-05-17T02:38:41.496Z,7.24
2023-05-17T02:39:23.805Z,7.20
2023-05-17T02:40:10.592Z,7.31
2023-05-17T02:40:52.394Z,7.31
2023-05-17T02:41:34.121Z,7.37
2023-05-17T02:42:15.839Z,7.34
2023-05-17T02:42:57.640Z,7.38
2023-05-17T02:43:39.336Z,7.35
2023-05-17T02:44:21.054Z,7.45
2023-05-17T02:45:02.970Z,7.43
2023-05-17T02:45:45.586Z,7.48
2023-05-17T02:46:28.113Z,7.44
2023-05-17T02:47:09.919Z,7.51
2023-05-17T02:47:51.998Z,7.52
2023-05-17T02:48:33.825Z,7.52
2023-05-17T02:49:15.603Z,7.50
2023-05-17T02:49:57.361Z,7.46
2023-05-17T02:50:39.874Z,7.56
2023-05-17T02:51:24.111Z,7.42
2023-05-17T02:52:06.050Z,7.51
2023-05-17T02:52:47.846Z,7.57
2023-05-17T02:53:29.690Z,7.50
2023-05-17T02:54:11.636Z,7.59
2023-05-17T02:54:53.491Z,7.53
2023-05-17T02:55:35.589Z,7.48
2023-05-17T02:56:17.256Z,7.60
2023-05-17T02:56:59.129Z,7.49
2023-05-17T02:57:41.058Z,7.53
2023-05-17T02:58:22.961Z,7.48
2023-05-17T02:59:05.316Z,7.41
2023-05-17T02:59:48.597Z,7.43
2023-05-17T03:00:30.529Z,7.34
2023-05-17T03:01:14.967Z,7.29
2023-05-17T03:01:57.535Z,7.35
2023-05-17T03:02:39.492Z,7.32
2023-05-17T03:03:21.940Z,7.18
2023-05-17T03:04:04.122Z,7.16
2023-05-17T03:04:46.384Z,7.17
2023-05-17T03:05:28.434Z,7.17
2023-05-17T03:06:11.487Z,7.15
2023-05-17T03:06:53.452Z,7.12
2023-05-17T03:07:35.203Z,7.10
2023-05-17T03:08:17.535Z,7.04
2023-05-17T03:09:00.780Z,7.06
2023-05-17T03:09:42.923Z,7.13
2023-05-17T03:10:24.618Z,7.11
2023-05-17T03:11:06.392Z,7.12
2023-05-17T03:11:48.121Z,7.10
2023-05-17T03:12:35.056Z,7.08
2023-05-17T03:13:16.870Z,7.12
2023-05-17T03:13:58.591Z,7.08
2023-05-17T03:14:42.539Z,7.21
2023-05-17T03:15:26.721Z,7.16
2023-05-17T03:16:09.453Z,7.13
2023-05-17T03:16:51.225Z,7.17
2023-05-17T03:17:33.167Z,7.09
2023-05-17T03:18:15.542Z,7.05
2023-05-17T03:18:58.203Z,7.09
2023-05-17T03:19:40.155Z,7.14
2023-05-17T03:20:22.523Z,7.09
2023-05-17T03:21:04.680Z,7.13
2023-05-17T03:21:46.807Z,7.23
2023-05-17T03:22:29.238Z,7.18
2023-05-17T03:23:13.073Z,7.30
2023-05-17T03:24:04.969Z,7.30
2023-05-17T03:24:47.468Z,7.31
2023-05-17T03:25:29.396Z,7.32
2023-05-17T03:26:11.513Z,7.27
2023-05-17T03:26:59.553Z,7.35
2023-05-17T03:27:41.949Z,7.30
2023-05-17T03:28:24.031Z,7.38
2023-05-17T03:29:05.886Z,7.40
2023-05-17T03:29:47.674Z,7.41
2023-05-17T03:30:29.476Z,7.32
2023-05-17T03:31:15.009Z,7.37
2023-05-17T03:31:56.798Z,7.46
2023-05-17T03:32:41.763Z,7.40
2023-05-17T03:33:23.624Z,7.45
2023-05-17T03:34:05.514Z,7.42
2023-05-17T03:34:47.387Z,7.35
2023-05-17T03:35:29.252Z,7.48
2023-05-17T03:36:14.903Z,7.47
2023-05-17T03:36:56.652Z,7.49
2023-05-17T03:37:38.565Z,7.57
2023-05-17T03:38:20.665Z,7.60
2023-05-17T03:39:02.447Z,7.55
2023-05-17T03:39:44.701Z,7.55
2023-05-17T03:40:26.415Z,7.56
2023-05-17T03:41:08.389Z,7.58
2023-05-17T03:41:52.121Z,7.50
2023-05-17T03:42:35.395Z,7.51
2023-05-17T03:43:17.562Z,7.43
2023-05-17T03:43:59.460Z,7.41
2023-05-17T03:44:41.512Z,7.40
2023-05-17T03:45:23.243Z,7.40
2023-05-17T03:46:05.057Z,7.45
2023-05-17T03:46:46.761Z,7.43
2023-05-17T03:47:29.289Z,7.45
2023-05-17T03:48:11.200Z,7.45
2023-05-17T03:48:52.942Z,7.45
2023-05-17T03:49:34.736Z,7.40
2023-05-17T03:50:16.542Z,7.37
2023-05-17T03:50:58.291Z,7.39
2023-05-17T03:51:40.082Z,7.29
2023-05-17T03:52:21.841Z,7.39
2023-05-17T03:53:03.804Z,7.34
2023-05-17T03:53:46.155Z,7.31
2023-05-17T03:54:27.858Z,7.39
2023-05-17T03:55:09.749Z,7.39
2023-05-17T03:55:51.526Z,7.42
2023-05-17T03:56:33.312Z,7.41
2023-05-17T03:57:15.081Z,7.45
2023-05-17T03:57:56.903Z,7.38
2023-05-17T03:58:39.619Z,7.47
2023-05-17T03:59:21.386Z,7.51
2023-05-17T04:00:07.204Z,7.45
2023-05-17T04:00:56.474Z,7.42
2023-05-17T04:01:38.159Z,7.50
2023-05-17T04:02:20.064Z,7.45
2023-05-17T04:03:03.174Z,7.49
2023-05-17T04:03:45.067Z,7.49
2023-05-17T04:04:26.971Z,7.48
2023-05-17T04:05:09.358Z,7.47
2023-05-17T04:05:51.162Z,7.47
2023-05-17T04:06:33.314Z,7.46
2023-05-17T04:07:15.062Z,7.48
2023-05-17T04:07:56.780Z,7.40
2023-05-17T04:08:38.533Z,7.47
2023-05-17T04:09:20.350Z,7.47
2023-05-17T04:10:03.115Z,7.48
2023-05-17T04:10:46.108Z,7.49
2023-05-17T04:11:28.281Z,7.49
2023-05-17T04:12:12.354Z,7.48
2023-05-17T04:12:54.353Z,7.44
2023-05-17T04:13:37.632Z,7.45
2023-05-17T04:14:19.890Z,7.50
2023-05-17T04:15:02.179Z,7.49
2023-05-17T04:15:44.205Z,7.51
2023-05-17T04:16:48.601Z,7.52
2023-05-17T04:17:29.318Z,7.55
2023-05-17T04:18:11.153Z,7.53
2023-05-17T04:18:54.115Z,7.55
2023-05-17T04:19:36.025Z,7.50
2023-05-17T04:20:17.951Z,7.57
2023-05-17T04:20:59.907Z,7.57
2023-05-17T04:21:41.666Z,7.49
2023-05-17T04:22:23.493Z,7.61
2023-05-17T04:23:05.605Z,7.60
2023-05-17T04:23:49.927Z,7.58
2023-05-17T04:24:31.714Z,7.58
2023-05-17T04:25:13.614Z,7.51
2023-05-17T04:25:56.820Z,7.55
2023-05-17T04:26:39.956Z,7.51
2023-05-17T04:27:22.672Z,7.53
2023-05-17T04:28:05.319Z,7.50
2023-05-17T04:28:47.127Z,7.50
2023-05-17T04:29:28.960Z,7.51
2023-05-17T04:30:11.155Z,7.51
2023-05-17T04:30:53.428Z,7.51
2023-05-17T04:31:35.235Z,7.50
2023-05-17T04:32:18.048Z,7.34
2023-05-17T04:33:01.052Z,7.44
2023-05-17T04:33:43.056Z,7.35
2023-05-17T04:34:26.231Z,7.36
2023-05-17T04:35:09.793Z,7.40
2023-05-17T04:35:54.658Z,7.42
2023-05-17T04:36:37.336Z,7.41
2023-05-17T04:37:20.082Z,7.38
2023-05-17T04:38:04.910Z,7.39
2023-05-17T04:38:47.199Z,7.39
2023-05-17T04:39:32.646Z,7.40
2023-05-17T04:40:14.877Z,7.41
2023-05-17T04:41:06.556Z,7.41
2023-05-17T04:41:50.788Z,7.45
2023-05-17T04:42:34.500Z,7.47
2023-05-17T04:43:16.661Z,7.48
2023-05-17T04:43:59.723Z,7.52
2023-05-17T04:44:47.060Z,7.53
2023-05-17T04:45:29.500Z,7.54
2023-05-17T04:46:12.733Z,7.51
2023-05-17T04:46:54.519Z,7.48
2023-05-17T04:47:37.212Z,7.56
2023-05-17T04:48:20.733Z,7.58
2023-05-17T04:49:03.268Z,7.53
2023-05-17T04:49:45.543Z,7.65
2023-05-17T04:50:27.402Z,7.67
2023-05-17T04:51:09.192Z,7.69
2023-05-17T04:51:51.009Z,7.74
2023-05-17T04:52:33.287Z,7.77
2023-05-17T04:53:15.788Z,7.76
2023-05-17T04:54:00.923Z,7.82
2023-05-17T04:54:43.978Z,7.87
2023-05-17T04:55:26.594Z,7.89
2023-05-17T04:56:08.595Z,7.81
2023-05-17T04:56:50.749Z,7.90
2023-05-17T04:57:45.133Z,7.90
2023-05-17T04:58:29.704Z,7.85
2023-05-17T04:59:13.927Z,7.92
2023-05-17T04:59:55.744Z,7.89
2023-05-17T05:00:37.512Z,7.89
2023-05-17T05:01:20.363Z,7.89
2023-05-17T05:02:02.204Z,7.87
2023-05-17T05:02:44.557Z,7.89
2023-05-17T05:03:28.028Z,7.90
2023-05-17T05:04:10.444Z,7.92
2023-05-17T05:04:56.551Z,7.96
2023-05-17T05:05:38.461Z,7.99
2023-05-17T05:06:22.052Z,7.99
2023-05-17T05:07:03.972Z,7.98
2023-05-17T05:07:45.999Z,8.02
2023-05-17T05:08:28.384Z,8.10
2023-05-17T05:09:11.040Z,8.19
2023-05-17T05:09:53.881Z,8.28
2023-05-17T05:10:37.227Z,8.43
2023-05-17T05:11:19.332Z,8.58
2023-05-17T05:12:01.040Z,8.65
2023-05-17T05:12:43.031Z,8.80
2023-05-17T05:13:24.842Z,8.97
2023-05-17T05:14:07.822Z,9.10
2023-05-17T05:14:49.567Z,9.15
2023-05-17T05:15:32.413Z,9.33
2023-05-17T05:16:15.142Z,9.48
2023-05-17T05:16:57.963Z,9.65
2023-05-17T05:17:39.791Z,9.76
2023-05-17T05:18:21.737Z,9.88
2023-05-17T05:19:03.884Z,9.99
2023-05-17T05:19:46.087Z,10.09
2023-05-17T05:20:28.365Z,10.15
2023-05-17T05:21:11.701Z,10.29
2023-05-17T05:21:53.603Z,10.38
2023-05-17T05:22:35.730Z,10.38
2023-05-17T05:23:18.804Z,10.51
2023-05-17T05:24:04.250Z,10.57
2023-05-17T05:24:46.057Z,10.55
2023-05-17T05:25:28.647Z,10.64
2023-05-17T05:26:13.075Z,10.63
2023-05-17T05:26:54.859Z,10.64
2023-05-17T05:27:37.293Z,10.58
2023-05-17T05:28:19.067Z,10.73
2023-05-17T05:29:01.133Z,10.75
2023-05-17T05:29:43.656Z,10.77
2023-05-17T05:30:26.504Z,10.75
2023-05-17T05:31:09.665Z,10.72
2023-05-17T05:31:57.800Z,10.80
2023-05-17T05:32:39.860Z,10.76
2023-05-17T05:33:21.728Z,10.81
2023-05-17T05:34:03.703Z,10.80
2023-05-17T05:34:47.087Z,10.71
2023-05-17T05:35:30.537Z,10.76
2023-05-17T05:36:13.464Z,10.70
2023-05-17T05:36:58.301Z,10.76
2023-05-17T05:37:40.113Z,10.75
2023-05-17T05:38:22.018Z,10.67
2023-05-17T05:39:03.978Z,10.70
2023-05-17T05:39:47.070Z,10.76
2023-05-17T05:40:29.007Z,10.76
2023-05-17T05:41:10.983Z,10.79
2023-05-17T05:41:52.671Z,10.79
2023-05-17T05:42:34.718Z,10.70
2023-05-17T05:43:16.583Z,10.77
2023-05-17T05:43:58.428Z,10.75
2023-05-17T05:44:40.138Z,10.74
2023-05-17T05:45:22.769Z,10.73
2023-05-17T05:46:08.186Z,10.73
2023-05-17T05:46:50.015Z,10.68
2023-05-17T05:47:32.087Z,10.74
2023-05-17T05:48:14.313Z,10.75
2023-05-17T05:48:56.371Z,10.75
2023-05-17T05:49:38.304Z,10.72
2023-05-17T05:50:20.247Z,10.73
2023-05-17T05:51:03.217Z,10.74
2023-05-17T05:51:45.068Z,10.70
2023-05-17T05:52:26.800Z,10.71
2023-05-17T05:53:18.272Z,10.67
2023-05-17T05:54:05.025Z,10.73
2023-05-17T05:54:46.990Z,10.70
2023-05-17T05:55:28.769Z,10.48
2023-05-17T05:56:11.084Z,10.75
2023-05-17T05:56:53.595Z,10.80
2023-05-17T05:57:35.874Z,10.85
2023-05-17T05:58:17.573Z,10.84
2023-05-17T05:59:00.323Z,10.87
2023-05-17T05:59:42.423Z,10.96
2023-05-17T06:00:24.544Z,11.00
2023-05-17T06:01:07.102Z,11.04
2023-05-17T06:01:49.361Z,11.07
2023-05-17T06:02:31.062Z,11.10
2023-05-17T06:03:12.813Z,11.13
2023-05-17T06:03:54.584Z,11.11
2023-05-17T06:04:45.022Z,11.20
2023-05-17T06:05:27.724Z,11.24
2023-05-17T06:06:10.229Z,11.16
2023-05-17T06:06:52.302Z,11.20
2023-05-17T06:07:34.102Z,11.30
2023-05-17T06:08:16.065Z,11.25
2023-05-17T06:08:59.544Z,11.35
2023-05-17T06:09:42.719Z,11.36
2023-05-17T06:10:24.564Z,11.38
2023-05-17T06:11:06.716Z,11.42
2023-05-17T06:11:48.943Z,11.47
2023-05-17T06:12:30.950Z,11.52
2023-05-17T06:13:15.856Z,11.56
2023-05-17T06:13:57.625Z,11.61
2023-05-17T06:14:39.389Z,11.65
2023-05-17T06:15:21.099Z,11.66
2023-05-17T06:16:03.022Z,11.73
2023-05-17T06:16:44.853Z,11.77
2023-05-17T06:17:26.733Z,11.74
2023-05-17T06:18:08.612Z,11.84
2023-05-17T06:18:51.422Z,11.87
2023-05-17T06:19:33.660Z,11.90
2023-05-17T06:20:16.446Z,11.93
2023-05-17T06:20:58.240Z,11.98
2023-05-17T06:21:40.436Z,12.03
2023-05-17T06:22:22.229Z,12.08
2023-05-17T06:23:05.111Z,12.06
2023-05-17T06:23:46.944Z,12.12
2023-05-17T06:24:28.709Z,12.12
2023-05-17T06:25:13.946Z,11.99
2023-05-17T06:25:55.880Z,12.08
2023-05-17T06:26:37.727Z,12.10
2023-05-17T06:27:19.381Z,12.13
2023-05-17T06:28:02.972Z,12.10
2023-05-17T06:28:44.695Z,12.17
2023-05-17T06:29:26.502Z,12.19
2023-05-17T06:30:08.719Z,12.20
2023-05-17T06:30:51.858Z,12.17
2023-05-17T06:31:34.050Z,12.20
2023-05-17T06:32:17.209Z,12.28
2023-05-17T06:32:59.127Z,12.33
2023-05-17T06:33:41.174Z,12.33
2023-05-17T06:34:23.043Z,12.39
2023-05-17T06:35:05.560Z,12.47
2023-05-17T06:35:56.074Z,12.58
2023-05-17T06:36:39.087Z,12.65
2023-05-17T06:37:20.872Z,12.65
2023-05-17T06:38:02.840Z,12.78
2023-05-17T06:38:44.685Z,12.83
2023-05-17T06:39:26.518Z,12.68
2023-05-17T06:40:16.038Z,12.79
2023-05-17T06:40:58.896Z,12.83
2023-05-17T06:41:40.788Z,12.89
2023-05-17T06:42:22.670Z,12.95
2023-05-17T06:43:05.389Z,13.02
2023-05-17T06:43:47.103Z,13.07
2023-05-17T06:44:29.018Z,13.15
2023-05-17T06:45:11.521Z,13.20
2023-05-17T06:45:53.202Z,13.21
2023-05-17T06:46:34.954Z,13.27
2023-05-17T06:47:18.521Z,13.27
2023-05-17T06:48:00.522Z,13.22
2023-05-17T06:48:42.557Z,13.13
2023-05-17T06:49:24.542Z,13.14
2023-05-17T06:50:07.391Z,13.22
2023-05-17T06:50:49.111Z,13.27
2023-05-17T06:51:31.191Z,13.31
2023-05-17T06:52:15.270Z,13.36
2023-05-17T06:52:57.015Z,13.39
2023-05-17T06:53:38.737Z,13.41
2023-05-17T06:54:20.554Z,13.45
2023-05-17T06:55:02.387Z,13.49
2023-05-17T06:55:44.582Z,13.46
2023-05-17T06:56:26.871Z,13.51
2023-05-17T06:57:10.069Z,13.52
2023-05-17T06:57:51.823Z,13.62
2023-05-17T06:58:35.472Z,13.56
2023-05-17T06:59:17.204Z,13.59
2023-05-17T06:59:58.938Z,13.50
2023-05-17T07:00:41.117Z,13.40
2023-05-17T07:01:22.815Z,13.18
2023-05-17T07:02:04.979Z,13.38
2023-05-17T07:02:47.074Z,13.39
2023-05-17T07:03:29.203Z,13.44
2023-05-17T07:04:13.345Z,13.57
2023-05-17T07:04:56.803Z,13.68
2023-05-17T07:05:38.673Z,13.69
2023-05-17T07:06:20.664Z,13.71
2023-05-17T07:07:02.434Z,13.86
2023-05-17T07:07:44.297Z,13.91
2023-05-17T07:08:26.030Z,13.93
2023-05-17T07:09:10.419Z,13.95
2023-05-17T07:09:52.101Z,13.91
2023-05-17T07:10:33.862Z,13.89
2023-05-17T07:11:15.695Z,13.82
2023-05-17T07:11:57.450Z,13.95
2023-05-17T07:12:39.199Z,14.00
2023-05-17T07:13:21.061Z,14.05
2023-05-17T07:14:02.800Z,14.12
2023-05-17T07:14:44.537Z,14.21
2023-05-17T07:15:26.477Z,14.19
2023-05-17T07:16:08.718Z,14.38
2023-05-17T07:16:50.588Z,14.41
2023-05-17T07:17:32.507Z,14.50
2023-05-17T07:18:14.420Z,14.50
2023-05-17T07:18:56.797Z,14.44
2023-05-17T07:19:41.379Z,14.43
2023-05-17T07:20:23.373Z,14.51
2023-05-17T07:21:05.100Z,14.63
2023-05-17T07:21:46.929Z,14.74
2023-05-17T07:22:28.690Z,14.77
2023-05-17T07:23:10.415Z,14.55
2023-05-17T07:23:52.141Z,14.61
2023-05-17T07:24:35.807Z,14.38
2023-05-17T07:25:21.457Z,14.03
2023-05-17T07:26:03.216Z,13.96
2023-05-17T07:26:45.908Z,13.93
2023-05-17T07:27:27.828Z,13.94
2023-05-17T07:28:09.557Z,13.81
2023-05-17T07:28:51.835Z,13.89
2023-05-17T07:29:33.555Z,14.08
2023-05-17T07:30:15.641Z,14.15
2023-05-17T07:30:57.335Z,14.11
2023-05-17T07:31:39.209Z,14.01
2023-05-17T07:32:20.964Z,14.10
2023-05-17T07:33:02.783Z,14.18
2023-05-17T07:33:44.669Z,14.29
2023-05-17T07:34:26.433Z,14.40
2023-05-17T07:35:08.326Z,14.51
2023-05-17T07:35:50.111Z,14.65
2023-05-17T07:36:32.097Z,14.73
2023-05-17T07:37:13.849Z,14.85
2023-05-17T07:37:55.539Z,14.96
2023-05-17T07:38:37.415Z,14.89
2023-05-17T07:39:19.185Z,14.93
2023-05-17T07:40:00.867Z,14.98
2023-05-17T07:40:42.711Z,15.02
2023-05-17T07:41:24.560Z,15.07
2023-05-17T07:42:06.848Z,15.07
2023-05-17T07:42:48.718Z,15.00
2023-05-17T07:43:30.904Z,14.93
2023-05-17T07:44:13.747Z,14.88
2023-05-17T07:44:55.543Z,14.90
2023-05-17T07:45:37.289Z,14.59
2023-05-17T07:46:19.126Z,14.49
2023-05-17T07:47:00.996Z,14.58
2023-05-17T07:47:42.876Z,14.69
2023-05-17T07:48:24.779Z,14.79
2023-05-17T07:49:06.761Z,14.83
2023-05-17T07:49:48.648Z,14.98
2023-05-17T07:50:30.836Z,15.17
2023-05-17T07:51:12.575Z,15.31
2023-05-17T07:51:55.522Z,15.50
2023-05-17T07:52:37.386Z,15.52
2023-05-17T07:53:19.076Z,15.59
2023-05-17T07:54:05.288Z,15.56
2023-05-17T07:54:47.080Z,15.43
2023-05-17T07:55:29.082Z,15.36
2023-05-17T07:56:10.950Z,15.23
2023-05-17T07:56:55.200Z,15.35
2023-05-17T07:57:37.107Z,15.30
2023-05-17T07:58:19.031Z,15.40
2023-05-17T07:59:00.837Z,15.51
2023-05-17T07:59:42.544Z,15.65
2023-05-17T08:00:24.614Z,15.80
2023-05-17T08:01:06.411Z,15.86
2023-05-17T08:01:48.366Z,15.69
2023-05-17T08:02:30.180Z,15.71
2023-05-17T08:03:12.026Z,15.79
2023-05-17T08:03:53.962Z,15.79
2023-05-17T08:04:36.247Z,15.67
2023-05-17T08:05:17.947Z,15.51
2023-05-17T08:05:59.755Z,15.37
2023-05-17T08:06:43.357Z,15.40
2023-05-17T08:07:25.182Z,15.59
2023-05-17T08:08:06.909Z,15.73
2023-05-17T08:08:48.611Z,15.78
2023-05-17T08:09:30.401Z,15.91
2023-05-17T08:10:12.258Z,16.02
2023-05-17T08:10:54.159Z,16.20
2023-05-17T08:11:36.082Z,16.25
2023-05-17T08:12:17.899Z,16.07
2023-05-17T08:12:59.680Z,15.80
2023-05-17T08:13:41.621Z,15.50
2023-05-17T08:14:24.641Z,15.15
2023-05-17T08:15:06.961Z,14.92
2023-05-17T08:15:50.077Z,14.84
2023-05-17T08:16:33.387Z,14.72
2023-05-17T08:17:15.129Z,14.78
2023-05-17T08:17:56.980Z,14.76
2023-05-17T08:18:39.026Z,14.76
2023-05-17T08:19:21.168Z,14.76
2023-05-17T08:20:03.118Z,14.65
2023-05-17T08:20:46.555Z,14.39
2023-05-17T08:21:28.436Z,14.39
2023-05-17T08:22:10.601Z,14.65
2023-05-17T08:22:52.390Z,14.78
2023-05-17T08:23:34.256Z,14.99
2023-05-17T08:24:17.595Z,14.98
2023-05-17T08:24:59.323Z,14.80
2023-05-17T08:25:41.967Z,14.69
2023-05-17T08:26:23.722Z,14.70
2023-05-17T08:27:06.008Z,14.70
2023-05-17T08:27:47.813Z,14.66
2023-05-17T08:28:29.592Z,14.51
2023-05-17T08:29:11.346Z,14.58
2023-05-17T08:29:54.961Z,14.65
2023-05-17T08:30:36.689Z,14.60
2023-05-17T08:31:18.454Z,14.46
2023-05-17T08:32:00.144Z,14.78
2023-05-17T08:32:41.983Z,15.10
2023-05-17T08:33:26.122Z,15.40
2023-05-17T08:34:08.199Z,15.45
2023-05-17T08:34:50.038Z,15.60
2023-05-17T08:35:31.926Z,15.54
2023-05-17T08:36:13.878Z,15.62
2023-05-17T08:36:55.682Z,15.59
2023-05-17T08:37:37.747Z,15.58
2023-05-17T08:38:20.803Z,15.71
2023-05-17T08:39:04.062Z,15.76
2023-05-17T08:39:45.888Z,15.80
2023-05-17T08:40:28.193Z,15.84
2023-05-17T08:41:10.168Z,15.78
2023-05-17T08:41:52.084Z,15.84
2023-05-17T08:42:34.920Z,15.80
2023-05-17T08:43:17.210Z,15.81
2023-05-17T08:44:00.070Z,15.60
2023-05-17T08:44:42.029Z,15.52
2023-05-17T08:45:26.796Z,15.40
2023-05-17T08:46:10.498Z,15.27
2023-05-17T08:46:53.823Z,15.16
2023-05-17T08:47:37.724Z,14.99
2023-05-17T08:48:20.402Z,14.88
2023-05-17T08:49:04.168Z,14.77
2023-05-17T08:49:48.140Z,14.67
2023-05-17T08:50:32.859Z,14.59
2023-05-17T08:51:16.254Z,14.51
2023-05-17T08:52:00.733Z,14.52
2023-05-17T08:52:46.351Z,14.58
2023-05-17T08:53:28.908Z,14.55
2023-05-17T08:54:10.680Z,14.62
2023-05-17T08:54:52.784Z,14.68
2023-05-17T08:55:34.721Z,14.73
2023-05-17T08:56:18.657Z,14.79
2023-05-17T08:57:01.065Z,14.91
2023-05-17T08:57:43.594Z,15.00
2023-05-17T08:58:29.296Z,15.05
2023-05-17T08:59:15.382Z,14.97
2023-05-17T09:00:00.384Z,14.96
2023-05-17T09:00:42.914Z,15.04
2023-05-17T09:01:26.766Z,15.05
2023-05-17T09:02:10.128Z,15.15
2023-05-17T09:02:52.061Z,15.25
2023-05-17T09:03:35.544Z,15.35
2023-05-17T09:04:18.017Z,15.43
2023-05-17T09:05:00.072Z,15.40
2023-05-17T09:05:43.394Z,15.49
2023-05-17T09:06:25.437Z,15.52
2023-05-17T09:07:07.731Z,15.56
2023-05-17T09:07:49.637Z,15.62
2023-05-17T09:08:32.852Z,15.61
2023-05-17T09:09:15.600Z,15.26
2023-05-17T09:09:58.508Z,15.58
2023-05-17T09:10:41.627Z,15.58
2023-05-17T09:11:36.610Z,15.45
2023-05-17T09:12:19.808Z,15.38
2023-05-17T09:13:01.805Z,15.35
2023-05-17T09:13:44.076Z,15.22
2023-05-17T09:14:35.920Z,15.13
2023-05-17T09:15:20.407Z,15.07
2023-05-17T09:16:02.326Z,15.06
2023-05-17T09:16:44.211Z,15.06
2023-05-17T09:17:25.983Z,14.98
2023-05-17T09:18:12.097Z,14.95
2023-05-17T09:18:55.412Z,14.97
2023-05-17T09:19:43.812Z,14.95
2023-05-17T09:20:36.608Z,14.91
2023-05-17T09:21:19.169Z,14.85
2023-05-17T09:22:04.673Z,14.82
2023-05-17T09:22:48.930Z,14.69
2023-05-17T09:23:33.990Z,14.73
2023-05-17T09:24:26.824Z,14.76
2023-05-17T09:25:08.854Z,14.74
2023-05-17T09:25:50.855Z,14.71